Time;durP1;ratioP1;P1;durP2;ratioP2;P2;SDS_P1;SDS_P2;PMS_P1;PMS_P2;Temp;Humidity;BMP_temperature;BMP_pressure;BME280_temperature;BME280_humidity;BME280_pressure;Samples;Min_cycle;Max_cycle;Signal;HPM_P1;HPM_P2
2023/01/15 00:09:28;;;;;;;0.20;0.10;;;12.90;99.90;;;;;;21113491;28;20881;-71
2023/01/15 00:19:32;;;;;;;0.20;0.10;;;12.80;99.90;;;;;;21122153;28;20418;-71
2023/01/15 00:29:37;;;;;;;0.20;0.10;;;13.00;99.90;;;;;;21157096;28;20432;-72
2023/01/15 00:39:41;;;;;;;0.20;0.10;;;12.90;99.90;;;;;;21132846;27;20459;-70
2023/01/15 00:49:46;;;;;;;0.20;0.10;;;13.00;99.90;;;;;;21132416;27;20488;-72
2023/01/15 00:59:50;;;;;;;0.20;0.10;;;13.10;99.90;;;;;;21137134;28;20456;-72
2023/01/15 01:09:55;;;;;;;0.20;0.10;;;13.10;99.90;;;;;;21153767;28;20395;-72
2023/01/15 01:19:59;;;;;;;0.20;0.10;;;13.20;99.90;;;;;;21154042;28;20468;-72
2023/01/15 01:30:05;;;;;;;0.20;0.10;;;13.10;99.90;;;;;;21153880;28;20490;-72
2023/01/15 01:40:10;;;;;;;0.20;0.10;;;13.20;99.90;;;;;;21151477;28;20514;-71
2023/01/15 01:50:15;;;;;;;0.20;0.10;;;13.20;99.90;;;;;;21151761;28;20410;-72
2023/01/15 02:00:21;;;;;;;0.20;0.00;;;13.30;99.90;;;;;;21149685;28;20508;-73
2023/01/15 02:10:26;;;;;;;0.20;0.10;;;13.40;99.90;;;;;;21149927;28;20452;-72
2023/01/15 02:20:36;;;;;;;0.20;0.10;;;13.30;99.90;;;;;;21149077;28;20464;-72
2023/01/15 02:30:44;;;;;;;0.20;0.10;;;13.40;99.90;;;;;;21147062;28;20881;-72
2023/01/15 02:40:50;;;;;;;0.20;0.10;;;13.20;99.90;;;;;;21148015;28;20414;-73
2023/01/15 02:51:01;;;;;;;0.20;0.10;;;13.00;99.90;;;;;;21147527;28;20799;-70
2023/01/15 03:01:11;;;;;;;0.20;0.00;;;12.90;99.90;;;;;;21144222;28;20456;-72
2023/01/15 03:11:19;;;;;;;0.20;0.10;;;13.00;99.90;;;;;;21146487;28;20390;-73
2023/01/15 03:21:28;;;;;;;0.20;0.10;;;12.90;99.90;;;;;;21146183;28;20421;-73
2023/01/15 03:31:35;;;;;;;0.20;0.10;;;12.90;99.90;;;;;;21144284;28;20951;-72
2023/01/15 03:41:54;;;;;;;0.20;0.10;;;13.00;99.90;;;;;;21144243;28;20475;-74
2023/01/15 03:52:05;;;;;;;0.20;0.10;;;13.10;99.90;;;;;;21145244;28;21048;-74
2023/01/15 04:02:12;;;;;;;0.20;0.10;;;13.40;99.90;;;;;;21143462;28;20410;-75
2023/01/15 04:12:17;;;;;;;0.20;0.10;;;13.70;99.90;;;;;;21157049;28;20439;-74
2023/01/15 04:22:21;;;;;;;0.20;0.10;;;13.30;99.90;;;;;;21158705;28;20417;-75
2023/01/15 04:32:26;;;;;;;0.20;0.10;;;13.30;99.90;;;;;;21157985;28;20911;-73
2023/01/15 04:52:52;;;;;;;0.20;0.10;;;13.10;99.90;;;;;;21155387;28;20757;-71
2023/01/15 05:02:56;;;;;;;0.20;0.07;;;13.70;99.90;;;;;;21122802;28;20771;-71
2023/01/15 05:13:01;;;;;;;0.20;0.10;;;13.40;99.90;;;;;;21068701;28;20399;-71
2023/01/15 05:23:05;;;;;;;0.20;0.10;;;13.40;99.90;;;;;;21068186;28;20980;-70
2023/01/15 05:33:10;;;;;;;0.20;0.10;;;13.40;99.90;;;;;;21069075;28;20423;-70
2023/01/15 05:43:14;;;;;;;0.20;0.10;;;13.40;99.90;;;;;;21066338;28;20470;-70
2023/01/15 05:53:19;;;;;;;0.20;0.10;;;13.30;99.90;;;;;;21066120;28;20400;-70
2023/01/15 06:03:23;;;;;;;0.20;0.10;;;12.90;99.90;;;;;;21066600;28;20461;-72
2023/01/15 06:13:28;;;;;;;0.20;0.10;;;13.00;99.90;;;;;;21065893;28;20404;-72
2023/01/15 06:23:35;;;;;;;0.20;0.10;;;13.00;99.90;;;;;;21064678;28;20423;-72
2023/01/15 06:33:40;;;;;;;0.20;0.07;;;12.80;99.90;;;;;;21062580;28;20457;-74
2023/01/15 06:54:07;;;;;;;0.20;0.10;;;12.90;99.90;;;;;;21061555;28;20477;-73
2023/01/15 07:04:11;;;;;;;0.20;0.10;;;12.40;99.90;;;;;;21083328;28;20414;-70
2023/01/15 07:14:16;;;;;;;0.20;0.10;;;12.30;99.90;;;;;;21145488;28;20501;-71
2023/01/15 07:24:20;;;;;;;0.20;0.10;;;12.30;99.90;;;;;;21145404;28;20402;-70
2023/01/15 07:34:25;;;;;;;0.20;0.10;;;12.40;99.90;;;;;;21143579;28;20402;-70
2023/01/15 07:54:52;;;;;;;0.20;0.10;;;12.00;99.90;;;;;;21160221;28;20454;-70
2023/01/15 08:04:56;;;;;;;0.20;0.10;;;13.30;99.90;;;;;;21157696;28;20441;-71
2023/01/15 08:15:13;;;;;;;0.20;0.10;;;14.00;99.90;;;;;;21157957;28;20407;-71
2023/01/15 08:25:19;;;;;;;0.20;0.10;;;14.30;99.90;;;;;;21099683;28;20751;-71
2023/01/15 08:35:24;;;;;;;0.20;0.10;;;14.10;99.90;;;;;;21074136;28;20805;-72
2023/01/15 08:45:28;;;;;;;0.20;0.10;;;14.10;99.90;;;;;;21054660;28;20439;-70
2023/01/15 08:55:34;;;;;;;0.20;0.10;;;14.10;99.90;;;;;;21071574;28;20970;-72
2023/01/15 09:05:38;;;;;;;0.20;0.10;;;14.20;99.90;;;;;;21071117;28;20415;-71
2023/01/15 09:15:43;;;;;;;0.20;0.10;;;14.40;99.90;;;;;;21068783;28;20396;-72
2023/01/15 09:25:52;;;;;;;0.20;0.10;;;14.40;99.90;;;;;;21068669;28;20937;-70
2023/01/15 09:35:57;;;;;;;0.20;0.10;;;14.50;99.90;;;;;;21066397;28;20837;-71
2023/01/15 09:46:08;;;;;;;0.20;0.10;;;14.40;99.90;;;;;;21066855;28;20415;-70
2023/01/15 09:56:21;;;;;;;0.20;0.10;;;14.10;99.90;;;;;;21064697;28;20428;-70
2023/01/15 10:06:27;;;;;;;0.20;0.10;;;14.10;99.90;;;;;;21062942;28;20409;-74
2023/01/15 10:16:33;;;;;;;0.20;0.10;;;14.20;99.90;;;;;;21062972;28;20754;-74
2023/01/15 10:26:41;;;;;;;0.20;0.10;;;14.90;99.90;;;;;;21060489;28;20401;-75
2023/01/15 10:36:52;;;;;;;0.20;0.10;;;15.50;99.90;;;;;;21060841;28;20502;-73
2023/01/15 10:47:00;;;;;;;0.20;0.00;;;16.50;99.90;;;;;;21059988;28;20413;-73
2023/01/15 10:57:12;;;;;;;0.20;0.10;;;17.60;99.90;;;;;;21061017;28;20433;-71
2023/01/15 11:07:18;;;;;;;0.20;0.10;;;18.10;99.90;;;;;;21057442;28;20415;-71
2023/01/15 11:27:50;;;;;;;0.20;0.10;;;18.60;99.90;;;;;;21158065;28;20414;-71
2023/01/15 11:38:04;;;;;;;1.85;1.30;;;18.30;99.90;;;;;;21158628;28;20389;-71
2023/01/15 11:58:44;;;;;;;0.20;0.10;;;17.40;99.90;;;;;;21154647;28;20440;-71
2023/01/15 12:08:51;;;;;;;0.20;0.10;;;17.50;99.90;;;;;;21154216;28;20402;-72
2023/01/15 12:19:10;;;;;;;0.20;0.10;;;19.00;99.90;;;;;;21154207;28;20469;-71
2023/01/15 12:29:21;;;;;;;0.20;0.07;;;19.30;99.90;;;;;;21153556;28;20399;-68
2023/01/15 12:39:32;;;;;;;0.20;0.00;;;19.80;99.90;;;;;;21154167;28;20882;-72
2023/01/15 12:49:43;;;;;;;0.20;0.10;;;20.00;99.90;;;;;;21152177;28;20407;-68
2023/01/15 12:59:54;;;;;;;0.20;0.10;;;19.60;99.90;;;;;;21151701;28;20418;-70
2023/01/15 13:10:06;;;;;;;0.20;0.10;;;20.00;99.90;;;;;;21129403;28;20394;-72
2023/01/15 13:20:25;;;;;;;0.30;0.30;;;19.70;99.90;;;;;;21130076;28;20395;-71
2023/01/15 13:30:52;;;;;;;0.20;0.10;;;20.30;99.90;;;;;;21148868;28;20509;-72
2023/01/15 13:40:58;;;;;;;0.20;0.10;;;19.10;99.90;;;;;;21149467;28;20811;-72
2023/01/15 13:51:04;;;;;;;0.20;0.10;;;18.80;99.90;;;;;;21151304;28;20871;-73
2023/01/15 14:01:23;;;;;;;0.20;0.10;;;17.80;99.90;;;;;;21147569;27;20442;-72
2023/01/15 14:11:35;;;;;;;0.20;0.10;;;18.70;99.90;;;;;;21142654;28;20395;-71
2023/01/15 14:21:51;;;;;;;0.20;0.10;;;18.90;99.90;;;;;;21146723;28;20460;-70
2023/01/15 14:32:06;;;;;;;0.20;0.10;;;17.60;99.90;;;;;;21147383;28;20436;-71
2023/01/15 14:52:38;;;;;;;0.20;0.10;;;16.70;99.90;;;;;;21126880;28;20395;-71
2023/01/15 15:02:48;;;;;;;0.20;0.10;;;16.30;99.90;;;;;;21143947;28;20420;-72
2023/01/15 15:13:01;;;;;;;0.20;0.10;;;16.00;99.90;;;;;;21143184;28;20478;-71
2023/01/15 15:23:15;;;;;;;0.20;0.10;;;15.70;99.90;;;;;;21143191;28;20426;-71
2023/01/15 15:33:21;;;;;;;0.20;0.10;;;15.80;99.90;;;;;;21144318;28;20406;-73
2023/01/15 15:54:03;;;;;;;0.20;0.10;;;15.10;99.90;;;;;;21142033;28;20401;-71
2023/01/15 16:04:17;;;;;;;0.20;0.10;;;14.70;99.90;;;;;;21149210;28;20410;-71
2023/01/15 16:14:22;;;;;;;0.20;0.00;;;14.20;99.90;;;;;;21156862;28;20382;-72
2023/01/15 16:24:29;;;;;;;0.20;0.10;;;13.70;99.90;;;;;;21139494;28;20425;-72
2023/01/15 16:34:34;;;;;;;0.20;0.10;;;13.60;99.90;;;;;;21155352;28;20405;-72
2023/01/15 16:44:43;;;;;;;0.20;0.10;;;13.80;99.90;;;;;;21154426;28;20788;-72
2023/01/15 16:54:47;;;;;;;0.20;0.00;;;13.80;99.90;;;;;;21154747;28;20785;-70
2023/01/15 17:04:52;;;;;;;0.20;0.10;;;13.90;99.90;;;;;;21153110;28;20402;-70
2023/01/15 17:15:15;;;;;;;0.20;0.10;;;13.60;99.90;;;;;;21134147;28;20432;-71
2023/01/15 17:25:26;;;;;;;0.20;0.00;;;13.30;99.90;;;;;;21150971;28;20391;-70
2023/01/15 17:35:31;;;;;;;0.20;0.10;;;13.10;99.90;;;;;;21151041;28;20443;-72
2023/01/15 17:45:36;;;;;;;0.20;0.00;;;13.10;99.90;;;;;;21149737;28;20406;-72
2023/01/15 18:06:03;;;;;;;0.20;0.10;;;12.90;99.90;;;;;;21146599;28;20407;-71
2023/01/15 18:16:07;;;;;;;0.20;0.10;;;12.70;99.90;;;;;;21145149;28;20746;-70
2023/01/15 18:26:13;;;;;;;0.20;0.10;;;12.60;99.90;;;;;;21146017;28;20443;-69
2023/01/15 18:36:17;;;;;;;0.20;0.07;;;12.20;99.90;;;;;;21143639;28;20417;-70
2023/01/15 18:56:46;;;;;;;0.20;0.10;;;12.00;99.90;;;;;;21141082;28;20386;-72
2023/01/15 19:06:52;;;;;;;0.20;0.10;;;11.90;99.90;;;;;;21141894;28;20957;-73
2023/01/15 19:27:21;;;;;;;0.20;0.10;;;11.80;99.90;;;;;;21037683;28;20981;-70
2023/01/15 19:37:25;;;;;;;0.20;0.10;;;11.60;99.90;;;;;;21143927;28;20398;-70
2023/01/15 19:57:58;;;;;;;0.20;0.10;;;11.10;99.90;;;;;;21154341;28;21318;-71
2023/01/15 20:08:03;;;;;;;0.20;0.10;;;9.70;99.90;;;;;;21153020;28;20411;-70
2023/01/15 20:18:07;;;;;;;0.20;0.10;;;9.60;99.90;;;;;;21152832;28;20763;-71
2023/01/15 20:28:12;;;;;;;0.20;0.10;;;9.30;99.90;;;;;;20985826;28;20549;-73
2023/01/15 20:38:17;;;;;;;0.20;0.10;;;9.30;99.90;;;;;;20982910;28;20483;-71
2023/01/15 20:58:44;;;;;;;0.20;0.10;;;10.30;99.90;;;;;;20981797;28;20410;-70
2023/01/15 21:08:49;;;;;;;0.20;0.10;;;10.60;99.90;;;;;;20980252;28;20422;-70
2023/01/15 21:18:53;;;;;;;0.20;0.03;;;10.50;99.90;;;;;;20991153;28;20402;-70
2023/01/15 21:28:58;;;;;;;0.20;0.10;;;10.40;99.90;;;;;;21146370;28;20759;-71
2023/01/15 21:39:02;;;;;;;0.20;0.00;;;11.30;99.90;;;;;;21128565;28;20481;-72
2023/01/15 21:49:08;;;;;;;0.20;0.10;;;11.70;99.90;;;;;;21145600;27;20505;-72
2023/01/15 21:59:12;;;;;;;0.20;0.10;;;11.40;99.90;;;;;;21144495;28;20452;-72
2023/01/15 22:09:18;;;;;;;0.20;0.10;;;11.30;99.90;;;;;;21139099;28;20421;-73
2023/01/15 22:19:23;;;;;;;0.20;0.10;;;11.40;99.90;;;;;;21143105;28;20394;-72
2023/01/15 22:29:30;;;;;;;0.20;0.10;;;11.20;99.90;;;;;;21142740;28;20792;-71
2023/01/15 22:39:35;;;;;;;0.20;0.10;;;10.80;99.90;;;;;;21143222;28;20870;-72
2023/01/15 22:49:40;;;;;;;0.20;0.10;;;10.70;99.90;;;;;;21140553;28;20428;-71
2023/01/15 22:59:43;;;;;;;0.20;0.10;;;10.80;99.90;;;;;;21132320;28;20394;-72
2023/01/15 23:09:49;;;;;;;0.20;0.10;;;9.60;99.90;;;;;;21128467;28;21153;-72
2023/01/15 23:19:53;;;;;;;0.20;0.10;;;9.40;99.90;;;;;;21128285;28;20394;-72
2023/01/15 23:29:58;;;;;;;0.20;0.10;;;9.10;99.90;;;;;;21146215;28;21247;-72
2023/01/15 23:40:02;;;;;;;0.20;0.10;;;9.10;99.90;;;;;;21145221;28;20954;-73
2023/01/15 23:50:07;;;;;;;0.20;0.10;;;9.10;99.90;;;;;;21146098;28;20498;-72
